createdAt,value
2019-04-26T21:52:43.302Z,9.60
2019-04-26T21:55:12.675Z,8.67
2019-04-26T21:57:40.876Z,9.30
2019-04-26T22:00:11.052Z,8.90
2019-04-26T22:02:40.956Z,17.87
2019-04-26T22:05:11.836Z,25.30
2019-04-26T22:07:44.643Z,32.33
2019-04-26T22:10:14.496Z,27.43
2019-04-26T22:12:43.218Z,23.37
2019-04-26T22:15:29.541Z,21.77
2019-04-26T22:17:58.352Z,20.17
2019-04-26T22:20:37.491Z,20.37
2019-04-26T22:23:11.521Z,19.63
2019-04-26T22:25:41.964Z,18.87
2019-04-26T22:30:28.328Z,23.00
2019-04-26T22:32:58.242Z,25.13
2019-04-26T22:35:24.862Z,27.57
2019-04-26T22:37:53.796Z,28.20
2019-04-26T22:40:23.328Z,29.57
2019-04-26T22:42:54.382Z,29.50
2019-04-26T22:45:27.930Z,32.13
2019-04-26T22:48:00.761Z,29.77
2019-04-26T22:50:29.313Z,33.80
2019-04-26T22:52:57.900Z,35.23
2019-04-26T22:55:27.491Z,32.23
2019-04-26T22:57:55.886Z,36.40
2019-04-26T23:00:29.415Z,34.37
2019-04-26T23:02:58.008Z,36.47
2019-04-26T23:05:25.857Z,36.07
2019-04-26T23:07:54.754Z,35.27
2019-04-26T23:10:30.990Z,38.30
2019-04-26T23:13:09.769Z,38.37
2019-04-26T23:15:39.611Z,39.23
2019-04-26T23:18:25.893Z,38.80
2019-04-26T23:21:07.733Z,42.07
2019-04-26T23:23:37.170Z,42.47
2019-04-26T23:26:06.190Z,41.53
2019-04-26T23:28:37.068Z,44.03
2019-04-26T23:31:07.874Z,44.37
2019-04-26T23:33:34.940Z,42.77
2019-04-26T23:36:03.330Z,40.90
2019-04-26T23:38:36.289Z,43.87
2019-04-26T23:41:06.944Z,42.13
2019-04-26T23:43:31.915Z,42.87
2019-04-26T23:46:00.104Z,45.90
2019-04-26T23:48:28.331Z,44.60
2019-04-26T23:50:59.882Z,44.37
2019-04-26T23:53:26.764Z,45.00
2019-04-26T23:55:54.968Z,47.17
2019-04-26T23:58:23.230Z,43.97
